sensor_id;sensor_type;location;lat;lon;timestamp;pressure;altitude;pressure_sealevel;temperature;humidity
73558;BME280;61829;53.286;10.434;2023-04-30T00:00:30;101988.91;;;4.71;82.26
73558;BME280;61829;53.286;10.434;2023-04-30T00:03:16;101996.19;;;4.69;81.58
73558;BME280;61829;53.286;10.434;2023-04-30T00:05:41;101987.56;;;4.65;81.67
73558;BME280;61829;53.286;10.434;2023-04-30T00:08:07;101987.91;;;4.61;82.25
73558;BME280;61829;53.286;10.434;2023-04-30T00:10:33;101989.88;;;4.59;82.18
73558;BME280;61829;53.286;10.434;2023-04-30T00:12:59;101991.91;;;4.55;81.92
73558;BME280;61829;53.286;10.434;2023-04-30T00:15:25;101983.28;;;4.52;81.85
73558;BME280;61829;53.286;10.434;2023-04-30T00:17:54;101994.19;;;4.48;83.01
73558;BME280;61829;53.286;10.434;2023-04-30T00:20:19;101988.09;;;4.46;82.83
73558;BME280;61829;53.286;10.434;2023-04-30T00:22:45;101992.50;;;4.47;82.20
73558;BME280;61829;53.286;10.434;2023-04-30T00:25:11;101994.53;;;4.44;82.66
73558;BME280;61829;53.286;10.434;2023-04-30T00:27:50;102000.09;;;4.41;81.96
73558;BME280;61829;53.286;10.434;2023-04-30T00:30:15;101998.50;;;4.38;82.32
73558;BME280;61829;53.286;10.434;2023-04-30T00:32:41;101999.38;;;4.39;82.28
73558;BME280;61829;53.286;10.434;2023-04-30T00:35:07;102005.81;;;4.36;82.61
73558;BME280;61829;53.286;10.434;2023-04-30T00:37:33;102011.38;;;4.33;82.95
73558;BME280;61829;53.286;10.434;2023-04-30T00:39:59;102011.47;;;4.32;83.75
73558;BME280;61829;53.286;10.434;2023-04-30T00:42:25;102009.78;;;4.31;83.46
73558;BME280;61829;53.286;10.434;2023-04-30T00:44:51;102005.53;;;4.28;83.00
73558;BME280;61829;53.286;10.434;2023-04-30T00:47:17;102018.34;;;4.23;83.13
73558;BME280;61829;53.286;10.434;2023-04-30T00:49:43;102014.94;;;4.21;83.48
73558;BME280;61829;53.286;10.434;2023-04-30T00:52:09;102025.09;;;4.16;82.98
73558;BME280;61829;53.286;10.434;2023-04-30T00:54:34;102026.06;;;4.15;82.63
73558;BME280;61829;53.286;10.434;2023-04-30T00:57:01;102024.38;;;4.14;82.92
73558;BME280;61829;53.286;10.434;2023-04-30T00:59:28;102025.31;;;4.13;82.90
73558;BME280;61829;53.286;10.434;2023-04-30T01:05:06;102033.16;;;4.03;83.21
73558;BME280;61829;53.286;10.434;2023-04-30T01:07:34;102042.13;;;4.02;83.19
73558;BME280;61829;53.286;10.434;2023-04-30T01:10:00;102044.91;;;4.00;83.21
73558;BME280;61829;53.286;10.434;2023-04-30T01:15:37;102046.28;;;3.93;84.45
73558;BME280;61829;53.286;10.434;2023-04-30T01:18:33;102053.81;;;3.88;84.14
73558;BME280;61829;53.286;10.434;2023-04-30T01:21:04;102054.88;;;3.86;84.14
73558;BME280;61829;53.286;10.434;2023-04-30T01:29:03;102052.13;;;3.74;84.33
73558;BME280;61829;53.286;10.434;2023-04-30T01:31:29;102058.53;;;3.72;85.00
73558;BME280;61829;53.286;10.434;2023-04-30T01:33:56;102055.88;;;3.72;84.80
73558;BME280;61829;53.286;10.434;2023-04-30T01:42:20;102066.44;;;3.60;84.71
73558;BME280;61829;53.286;10.434;2023-04-30T01:47:49;102066.88;;;3.54;84.45
73558;BME280;61829;53.286;10.434;2023-04-30T01:53:19;102070.16;;;3.45;85.73
73558;BME280;61829;53.286;10.434;2023-04-30T01:55:50;102070.28;;;3.44;85.61
73558;BME280;61829;53.286;10.434;2023-04-30T01:58:21;102083.00;;;3.40;85.79
73558;BME280;61829;53.286;10.434;2023-04-30T02:00:48;102085.00;;;3.36;85.96
73558;BME280;61829;53.286;10.434;2023-04-30T02:03:14;102083.31;;;3.35;85.91
73558;BME280;61829;53.286;10.434;2023-04-30T02:05:40;102079.16;;;3.31;85.93
73558;BME280;61829;53.286;10.434;2023-04-30T02:08:06;102081.91;;;3.30;86.07
73558;BME280;61829;53.286;10.434;2023-04-30T02:10:32;102082.22;;;3.25;86.28
73558;BME280;61829;53.286;10.434;2023-04-30T02:13:01;102092.38;;;3.20;86.23
73558;BME280;61829;53.286;10.434;2023-04-30T02:15:27;102093.44;;;3.18;86.10
73558;BME280;61829;53.286;10.434;2023-04-30T02:17:53;102084.69;;;3.15;86.85
73558;BME280;61829;53.286;10.434;2023-04-30T02:20:19;102091.19;;;3.11;86.71
73558;BME280;61829;53.286;10.434;2023-04-30T02:22:45;102096.69;;;3.08;86.76
73558;BME280;61829;53.286;10.434;2023-04-30T02:25:11;102094.25;;;3.05;86.52
73558;BME280;61829;53.286;10.434;2023-04-30T02:27:38;102095.31;;;3.03;87.59
73558;BME280;61829;53.286;10.434;2023-04-30T02:30:05;102088.41;;;3.00;86.96
73558;BME280;61829;53.286;10.434;2023-04-30T02:32:31;102090.41;;;2.97;87.11
73558;BME280;61829;53.286;10.434;2023-04-30T02:34:57;102096.91;;;2.92;87.20
73558;BME280;61829;53.286;10.434;2023-04-30T02:37:23;102094.47;;;2.89;86.81
73558;BME280;61829;53.286;10.434;2023-04-30T02:39:49;102099.09;;;2.86;86.54
73558;BME280;61829;53.286;10.434;2023-04-30T02:42:15;102092.31;;;2.82;87.26
73558;BME280;61829;53.286;10.434;2023-04-30T02:44:41;102087.19;;;2.79;86.94
73558;BME280;61829;53.286;10.434;2023-04-30T02:47:08;102095.47;;;2.74;87.46
73558;BME280;61829;53.286;10.434;2023-04-30T02:49:34;102095.69;;;2.71;88.05
73558;BME280;61829;53.286;10.434;2023-04-30T02:52:00;102092.47;;;2.66;87.69
73558;BME280;61829;53.286;10.434;2023-04-30T02:54:26;102095.44;;;2.61;88.16
73558;BME280;61829;53.286;10.434;2023-04-30T02:56:52;102096.50;;;2.59;88.65
73558;BME280;61829;53.286;10.434;2023-04-30T02:59:19;102097.56;;;2.56;88.16
73558;BME280;61829;53.286;10.434;2023-04-30T03:01:45;102094.25;;;2.53;88.10
73558;BME280;61829;53.286;10.434;2023-04-30T03:04:11;102094.47;;;2.50;88.38
73558;BME280;61829;53.286;10.434;2023-04-30T03:06:37;102094.00;;;2.43;89.06
73558;BME280;61829;53.286;10.434;2023-04-30T03:09:03;102097.81;;;2.39;89.11
73558;BME280;61829;53.286;10.434;2023-04-30T03:11:29;102106.75;;;2.38;89.31
73558;BME280;61829;53.286;10.434;2023-04-30T03:13:55;102096.41;;;2.33;89.25
73558;BME280;61829;53.286;10.434;2023-04-30T03:16:21;102105.44;;;2.31;89.82
73558;BME280;61829;53.286;10.434;2023-04-30T03:18:48;102108.38;;;2.26;89.90
73558;BME280;61829;53.286;10.434;2023-04-30T03:21:13;102112.09;;;2.23;90.26
73558;BME280;61829;53.286;10.434;2023-04-30T03:23:39;102116.88;;;2.18;89.39
73558;BME280;61829;53.286;10.434;2023-04-30T03:26:05;102119.63;;;2.17;89.79
73558;BME280;61829;53.286;10.434;2023-04-30T03:28:33;102114.59;;;2.12;90.38
73558;BME280;61829;53.286;10.434;2023-04-30T03:31:00;102114.91;;;2.08;91.09
73558;BME280;61829;53.286;10.434;2023-04-30T03:33:31;102118.69;;;2.03;90.33
73558;BME280;61829;53.286;10.434;2023-04-30T03:35:57;102127.84;;;1.99;91.36
73558;BME280;61829;53.286;10.434;2023-04-30T03:38:23;102120.06;;;1.96;90.43
73558;BME280;61829;53.286;10.434;2023-04-30T03:40:49;102122.13;;;1.91;90.85
73558;BME280;61829;53.286;10.434;2023-04-30T03:43:15;102122.34;;;1.88;91.25
73558;BME280;61829;53.286;10.434;2023-04-30T03:45:41;102119.59;;;1.90;91.78
73558;BME280;61829;53.286;10.434;2023-04-30T03:48:06;102119.75;;;1.87;92.22
73558;BME280;61829;53.286;10.434;2023-04-30T03:50:32;102125.06;;;1.87;91.73
73558;BME280;61829;53.286;10.434;2023-04-30T03:52:58;102120.84;;;1.84;91.20
73558;BME280;61829;53.286;10.434;2023-04-30T03:55:24;102128.97;;;1.81;91.47
73558;BME280;61829;53.286;10.434;2023-04-30T03:57:50;102127.38;;;1.78;92.02
73558;BME280;61829;53.286;10.434;2023-04-30T04:00:16;102124.88;;;1.75;92.05
73558;BME280;61829;53.286;10.434;2023-04-30T04:02:42;102129.28;;;1.76;92.94
73558;BME280;61829;53.286;10.434;2023-04-30T04:05:08;102125.66;;;1.77;92.19
73558;BME280;61829;53.286;10.434;2023-04-30T04:07:34;102130.97;;;1.77;92.08
73558;BME280;61829;53.286;10.434;2023-04-30T04:10:00;102137.13;;;1.78;92.12
73558;BME280;61829;53.286;10.434;2023-04-30T04:12:26;102141.53;;;1.79;92.31
73558;BME280;61829;53.286;10.434;2023-04-30T04:14:51;102138.88;;;1.79;92.98
73558;BME280;61829;53.286;10.434;2023-04-30T04:17:17;102145.09;;;1.78;93.49
73558;BME280;61829;53.286;10.434;2023-04-30T04:19:43;102144.25;;;1.77;92.86
73558;BME280;61829;53.286;10.434;2023-04-30T04:22:10;102144.84;;;1.83;93.56
73558;BME280;61829;53.286;10.434;2023-04-30T04:24:36;102153.56;;;1.85;93.49
73558;BME280;61829;53.286;10.434;2023-04-30T04:27:03;102145.09;;;1.92;93.82
73558;BME280;61829;53.286;10.434;2023-04-30T04:29:28;102147.75;;;2.21;93.90
73558;BME280;61829;53.286;10.434;2023-04-30T04:31:55;102147.06;;;2.59;92.99
73558;BME280;61829;53.286;10.434;2023-04-30T04:34:20;102150.59;;;2.99;91.33
73558;BME280;61829;53.286;10.434;2023-04-30T04:36:47;102148.53;;;3.43;89.42
73558;BME280;61829;53.286;10.434;2023-04-30T04:39:12;102154.16;;;3.89;87.24
73558;BME280;61829;53.286;10.434;2023-04-30T04:41:39;102153.66;;;4.34;84.67
73558;BME280;61829;53.286;10.434;2023-04-30T04:44:06;102150.34;;;4.78;83.19
73558;BME280;61829;53.286;10.434;2023-04-30T04:46:33;102154.78;;;5.26;80.80
73558;BME280;61829;53.286;10.434;2023-04-30T04:48:59;102167.38;;;5.70;78.21
73558;BME280;61829;53.286;10.434;2023-04-30T04:51:25;102165.09;;;6.11;76.33
73558;BME280;61829;53.286;10.434;2023-04-30T04:53:51;102177.56;;;6.55;74.70
73558;BME280;61829;53.286;10.434;2023-04-30T04:56:17;102169.66;;;6.97;72.68
73558;BME280;61829;53.286;10.434;2023-04-30T04:58:43;102171.50;;;7.38;70.81
73558;BME280;61829;53.286;10.434;2023-04-30T05:01:10;102178.66;;;7.80;69.02
73558;BME280;61829;53.286;10.434;2023-04-30T05:03:35;102182.22;;;8.21;67.12
73558;BME280;61829;53.286;10.434;2023-04-30T05:06:02;102184.09;;;8.61;66.48
73558;BME280;61829;53.286;10.434;2023-04-30T05:08:28;102186.09;;;8.97;64.83
73558;BME280;61829;53.286;10.434;2023-04-30T05:10:54;102177.31;;;9.25;63.58
73558;BME280;61829;53.286;10.434;2023-04-30T05:13:20;102184.34;;;9.55;62.18
73558;BME280;61829;53.286;10.434;2023-04-30T05:15:48;102182.84;;;9.89;61.17
73558;BME280;61829;53.286;10.434;2023-04-30T05:18:13;102183.56;;;10.29;59.75
73558;BME280;61829;53.286;10.434;2023-04-30T05:20:39;102182.94;;;10.63;58.08
73558;BME280;61829;53.286;10.434;2023-04-30T05:23:05;102190.19;;;10.98;57.39
73558;BME280;61829;53.286;10.434;2023-04-30T05:25:31;102185.47;;;11.18;55.48
73558;BME280;61829;53.286;10.434;2023-04-30T05:27:57;102197.72;;;11.48;55.44
73558;BME280;61829;53.286;10.434;2023-04-30T05:30:23;102196.19;;;11.72;54.27
73558;BME280;61829;53.286;10.434;2023-04-30T05:32:49;102203.78;;;11.94;53.73
73558;BME280;61829;53.286;10.434;2023-04-30T05:35:35;102194.34;;;12.32;52.74
73558;BME280;61829;53.286;10.434;2023-04-30T05:38:01;102194.28;;;12.67;52.02
73558;BME280;61829;53.286;10.434;2023-04-30T05:40:28;102193.16;;;12.86;51.24
73558;BME280;61829;53.286;10.434;2023-04-30T05:42:56;102214.31;;;13.07;50.31
73558;BME280;61829;53.286;10.434;2023-04-30T05:45:22;102207.41;;;13.20;49.59
73558;BME280;61829;53.286;10.434;2023-04-30T05:47:48;102217.94;;;13.40;49.18
73558;BME280;61829;53.286;10.434;2023-04-30T05:50:14;102218.59;;;13.58;48.31
73558;BME280;61829;53.286;10.434;2023-04-30T05:52:40;102212.47;;;13.73;48.70
73558;BME280;61829;53.286;10.434;2023-04-30T05:55:06;102209.38;;;13.92;48.23
73558;BME280;61829;53.286;10.434;2023-04-30T05:57:32;102206.47;;;14.10;47.23
73558;BME280;61829;53.286;10.434;2023-04-30T05:59:59;102213.91;;;14.16;46.74
73558;BME280;61829;53.286;10.434;2023-04-30T06:02:25;102224.03;;;14.30;46.36
73558;BME280;61829;53.286;10.434;2023-04-30T06:04:51;102220.91;;;14.58;46.29
73558;BME280;61829;53.286;10.434;2023-04-30T06:07:17;102221.47;;;14.76;45.75
73558;BME280;61829;53.286;10.434;2023-04-30T06:09:43;102217.78;;;15.00;44.76
73558;BME280;61829;53.286;10.434;2023-04-30T06:12:09;102215.69;;;15.25;44.23
73558;BME280;61829;53.286;10.434;2023-04-30T06:14:35;102212.78;;;15.50;43.75
73558;BME280;61829;53.286;10.434;2023-04-30T06:17:00;102209.44;;;15.63;42.99
73558;BME280;61829;53.286;10.434;2023-04-30T06:19:27;102218.41;;;15.71;42.56
73558;BME280;61829;53.286;10.434;2023-04-30T06:21:53;102223.75;;;15.80;43.01
73558;BME280;61829;53.286;10.434;2023-04-30T06:24:19;102230.72;;;15.97;42.11
73558;BME280;61829;53.286;10.434;2023-04-30T06:26:45;102232.41;;;16.28;41.80
73558;BME280;61829;53.286;10.434;2023-04-30T06:29:11;102224.78;;;16.38;41.17
73558;BME280;61829;53.286;10.434;2023-04-30T06:31:36;102228.16;;;16.40;39.68
73558;BME280;61829;53.286;10.434;2023-04-30T06:34:02;102226.22;;;16.34;39.46
73558;BME280;61829;53.286;10.434;2023-04-30T06:36:28;102223.22;;;16.14;38.72
73558;BME280;61829;53.286;10.434;2023-04-30T06:38:54;102221.50;;;15.68;37.83
73558;BME280;61829;53.286;10.434;2023-04-30T06:41:19;102226.72;;;15.47;38.58
73558;BME280;61829;53.286;10.434;2023-04-30T06:43:45;102235.97;;;15.38;39.28
73558;BME280;61829;53.286;10.434;2023-04-30T06:46:11;102234.16;;;15.30;39.94
73558;BME280;61829;53.286;10.434;2023-04-30T06:48:37;102233.03;;;15.24;38.52
73558;BME280;61829;53.286;10.434;2023-04-30T06:51:03;102234.63;;;15.34;39.39
73558;BME280;61829;53.286;10.434;2023-04-30T06:53:29;102243.19;;;15.45;38.22
73558;BME280;61829;53.286;10.434;2023-04-30T06:55:54;102238.28;;;15.49;39.00
73558;BME280;61829;53.286;10.434;2023-04-30T06:58:21;102240.69;;;15.21;39.53
73558;BME280;61829;53.286;10.434;2023-04-30T07:00:46;102243.56;;;15.19;40.34
73558;BME280;61829;53.286;10.434;2023-04-30T07:03:12;102251.66;;;15.27;39.95
73558;BME280;61829;53.286;10.434;2023-04-30T07:05:39;102241.88;;;15.41;38.69
73558;BME280;61829;53.286;10.434;2023-04-30T07:08:07;102243.94;;;15.39;39.24
73558;BME280;61829;53.286;10.434;2023-04-30T07:10:33;102239.78;;;15.89;39.49
73558;BME280;61829;53.286;10.434;2023-04-30T07:12:59;102245.22;;;15.52;38.68
73558;BME280;61829;53.286;10.434;2023-04-30T07:15:25;102248.81;;;14.98;40.47
73558;BME280;61829;53.286;10.434;2023-04-30T07:17:51;102246.81;;;14.60;39.39
73558;BME280;61829;53.286;10.434;2023-04-30T07:20:17;102250.69;;;14.66;39.50
73558;BME280;61829;53.286;10.434;2023-04-30T07:22:43;102252.78;;;14.48;38.84
73558;BME280;61829;53.286;10.434;2023-04-30T07:25:13;102258.22;;;13.51;40.39
73558;BME280;61829;53.286;10.434;2023-04-30T07:27:39;102260.00;;;13.10;41.84
73558;BME280;61829;53.286;10.434;2023-04-30T07:30:06;102262.44;;;13.29;40.89
73558;BME280;61829;53.286;10.434;2023-04-30T07:32:34;102255.41;;;12.94;41.43
73558;BME280;61829;53.286;10.434;2023-04-30T07:35:00;102257.53;;;12.66;42.56
73558;BME280;61829;53.286;10.434;2023-04-30T07:37:26;102249.63;;;12.89;42.21
73558;BME280;61829;53.286;10.434;2023-04-30T07:39:52;102263.06;;;13.23;42.21
73558;BME280;61829;53.286;10.434;2023-04-30T07:42:18;102257.19;;;13.60;40.96
73558;BME280;61829;53.286;10.434;2023-04-30T07:44:44;102254.09;;;14.04;42.01
73558;BME280;61829;53.286;10.434;2023-04-30T07:47:10;102266.50;;;13.58;41.10
73558;BME280;61829;53.286;10.434;2023-04-30T07:49:36;102264.78;;;12.73;41.97
73558;BME280;61829;53.286;10.434;2023-04-30T07:52:05;102260.59;;;12.36;44.06
73558;BME280;61829;53.286;10.434;2023-04-30T07:54:33;102260.16;;;12.15;44.53
73558;BME280;61829;53.286;10.434;2023-04-30T07:57:01;102262.13;;;12.81;42.66
73558;BME280;61829;53.286;10.434;2023-04-30T07:59:27;102264.78;;;13.32;43.77
73558;BME280;61829;53.286;10.434;2023-04-30T08:01:53;102264.72;;;13.16;42.76
73558;BME280;61829;53.286;10.434;2023-04-30T08:04:19;102256.25;;;12.94;42.76
73558;BME280;61829;53.286;10.434;2023-04-30T08:06:45;102264.81;;;12.81;43.67
73558;BME280;61829;53.286;10.434;2023-04-30T08:09:11;102258.22;;;12.76;44.15
73558;BME280;61829;53.286;10.434;2023-04-30T08:11:37;102262.28;;;12.72;44.19
73558;BME280;61829;53.286;10.434;2023-04-30T08:14:03;102270.13;;;12.91;44.39
73558;BME280;61829;53.286;10.434;2023-04-30T08:16:33;102263.38;;;13.12;44.23
73558;BME280;61829;53.286;10.434;2023-04-30T08:18:59;102264.56;;;13.09;43.47
73558;BME280;61829;53.286;10.434;2023-04-30T08:21:26;102270.50;;;12.62;43.69
73558;BME280;61829;53.286;10.434;2023-04-30T08:23:55;102269.63;;;12.53;44.22
73558;BME280;61829;53.286;10.434;2023-04-30T08:26:22;102272.50;;;12.52;43.89
73558;BME280;61829;53.286;10.434;2023-04-30T08:28:48;102276.53;;;12.98;42.89
73558;BME280;61829;53.286;10.434;2023-04-30T08:31:14;102275.63;;;13.40;42.27
73558;BME280;61829;53.286;10.434;2023-04-30T08:33:39;102280.72;;;13.68;42.30
73558;BME280;61829;53.286;10.434;2023-04-30T08:36:06;102268.16;;;14.08;42.10
73558;BME280;61829;53.286;10.434;2023-04-30T08:38:31;102259.31;;;14.22;41.84
73558;BME280;61829;53.286;10.434;2023-04-30T08:41:13;102270.94;;;14.39;41.33
73558;BME280;61829;53.286;10.434;2023-04-30T08:43:42;102269.22;;;14.54;41.68
73558;BME280;61829;53.286;10.434;2023-04-30T08:46:10;102273.13;;;14.52;41.49
73558;BME280;61829;53.286;10.434;2023-04-30T08:48:38;102267.56;;;14.85;42.20
73558;BME280;61829;53.286;10.434;2023-04-30T08:51:05;102271.56;;;14.97;39.88
73558;BME280;61829;53.286;10.434;2023-04-30T08:53:34;102261.69;;;15.04;38.54
73558;BME280;61829;53.286;10.434;2023-04-30T08:56:00;102258.13;;;15.26;38.60
73558;BME280;61829;53.286;10.434;2023-04-30T08:58:27;102265.31;;;15.42;39.15
73558;BME280;61829;53.286;10.434;2023-04-30T09:00:53;102271.94;;;15.40;38.03
73558;BME280;61829;53.286;10.434;2023-04-30T09:03:19;102267.53;;;15.39;37.27
73558;BME280;61829;53.286;10.434;2023-04-30T09:05:46;102267.78;;;15.06;37.27
73558;BME280;61829;53.286;10.434;2023-04-30T09:08:16;102260.25;;;14.85;37.78
73558;BME280;61829;53.286;10.434;2023-04-30T09:10:43;102267.78;;;15.06;37.68
73558;BME280;61829;53.286;10.434;2023-04-30T09:13:09;102265.09;;;15.29;37.71
73558;BME280;61829;53.286;10.434;2023-04-30T09:15:38;102269.72;;;15.43;37.22
73558;BME280;61829;53.286;10.434;2023-04-30T09:18:17;102267.72;;;15.83;36.83
73558;BME280;61829;53.286;10.434;2023-04-30T09:23:19;102259.97;;;16.39;36.10
73558;BME280;61829;53.286;10.434;2023-04-30T09:25:45;102262.03;;;16.23;35.99
73558;BME280;61829;53.286;10.434;2023-04-30T09:28:12;102267.56;;;16.00;35.54
73558;BME280;61829;53.286;10.434;2023-04-30T09:30:38;102267.97;;;15.74;36.47
73558;BME280;61829;53.286;10.434;2023-04-30T09:33:05;102272.41;;;15.66;34.99
73558;BME280;61829;53.286;10.434;2023-04-30T09:35:35;102262.22;;;15.22;36.34
73558;BME280;61829;53.286;10.434;2023-04-30T09:38:03;102259.66;;;15.29;38.27
73558;BME280;61829;53.286;10.434;2023-04-30T09:40:38;102265.09;;;15.29;38.64
73558;BME280;61829;53.286;10.434;2023-04-30T09:43:07;102262.53;;;15.50;37.29
73558;BME280;61829;53.286;10.434;2023-04-30T09:45:45;102262.78;;;15.41;38.18
73558;BME280;61829;53.286;10.434;2023-04-30T09:52:14;102243.84;;;16.08;37.95
73558;BME280;61829;53.286;10.434;2023-04-30T09:54:43;102237.94;;;16.20;37.25
73558;BME280;61829;53.286;10.434;2023-04-30T09:57:10;102232.31;;;16.06;37.01
73558;BME280;61829;53.286;10.434;2023-04-30T09:59:37;102233.22;;;16.13;38.45
73558;BME280;61829;53.286;10.434;2023-04-30T10:02:04;102232.31;;;16.21;36.81
73558;BME280;61829;53.286;10.434;2023-04-30T10:04:39;102240.19;;;15.63;35.62
73558;BME280;61829;53.286;10.434;2023-04-30T10:07:15;102237.78;;;15.68;38.04
73558;BME280;61829;53.286;10.434;2023-04-30T10:09:49;102239.97;;;15.65;36.81
73558;BME280;61829;53.286;10.434;2023-04-30T10:12:21;102228.06;;;16.04;37.81
73558;BME280;61829;53.286;10.434;2023-04-30T10:15:04;102227.88;;;16.35;36.05
73558;BME280;61829;53.286;10.434;2023-04-30T10:17:33;102235.06;;;16.72;35.86
73558;BME280;61829;53.286;10.434;2023-04-30T10:20:03;102231.19;;;16.45;34.64
73558;BME280;61829;53.286;10.434;2023-04-30T10:22:33;102230.69;;;16.27;35.75
73558;BME280;61829;53.286;10.434;2023-04-30T10:25:00;102226.09;;;16.27;35.36
73558;BME280;61829;53.286;10.434;2023-04-30T10:27:27;102223.09;;;16.52;36.78
73558;BME280;61829;53.286;10.434;2023-04-30T10:29:54;102220.78;;;16.85;36.04
73558;BME280;61829;53.286;10.434;2023-04-30T10:32:21;102217.88;;;16.87;35.24
73558;BME280;61829;53.286;10.434;2023-04-30T10:37:26;102212.75;;;16.98;36.02
73558;BME280;61829;53.286;10.434;2023-04-30T10:39:55;102209.19;;;16.98;34.12
73558;BME280;61829;53.286;10.434;2023-04-30T10:42:21;102207.19;;;16.85;35.08
73558;BME280;61829;53.286;10.434;2023-04-30T10:44:47;102212.63;;;17.06;35.71
73558;BME280;61829;53.286;10.434;2023-04-30T10:47:15;102211.81;;;17.27;34.35
73558;BME280;61829;53.286;10.434;2023-04-30T10:49:45;102212.63;;;17.28;33.44
73558;BME280;61829;53.286;10.434;2023-04-30T10:52:12;102201.44;;;17.16;32.94
73558;BME280;61829;53.286;10.434;2023-04-30T10:54:38;102207.19;;;17.06;33.81
73558;BME280;61829;53.286;10.434;2023-04-30T10:57:15;102210.38;;;17.10;33.21
73558;BME280;61829;53.286;10.434;2023-04-30T11:02:15;102197.78;;;17.31;34.03
73558;BME280;61829;53.286;10.434;2023-04-30T11:05:10;102199.97;;;17.42;33.72
73558;BME280;61829;53.286;10.434;2023-04-30T11:07:44;102188.13;;;17.28;31.17
73558;BME280;61829;53.286;10.434;2023-04-30T11:10:12;102193.56;;;17.28;32.25
73558;BME280;61829;53.286;10.434;2023-04-30T11:12:39;102200.63;;;17.44;31.86
73558;BME280;61829;53.286;10.434;2023-04-30T11:15:06;102195.78;;;17.67;32.75
73558;BME280;61829;53.286;10.434;2023-04-30T11:17:37;102194.31;;;17.93;33.06
73558;BME280;61829;53.286;10.434;2023-04-30T11:20:04;102188.19;;;17.91;31.39
73558;BME280;61829;53.286;10.434;2023-04-30T11:22:30;102182.97;;;17.68;32.35
73558;BME280;61829;53.286;10.434;2023-04-30T11:25:10;102181.19;;;17.54;32.80
73558;BME280;61829;53.286;10.434;2023-04-30T11:27:41;102182.00;;;17.47;32.71
73558;BME280;61829;53.286;10.434;2023-04-30T11:32:42;102181.63;;;17.79;33.13
73558;BME280;61829;53.286;10.434;2023-04-30T11:35:09;102176.44;;;17.90;32.68
73558;BME280;61829;53.286;10.434;2023-04-30T11:37:38;102171.41;;;17.87;31.71
73558;BME280;61829;53.286;10.434;2023-04-30T11:40:07;102166.59;;;17.89;31.86
73558;BME280;61829;53.286;10.434;2023-04-30T11:42:36;102172.75;;;18.05;32.90
73558;BME280;61829;53.286;10.434;2023-04-30T11:50:09;102165.13;;;17.87;32.14
73558;BME280;61829;53.286;10.434;2023-04-30T11:52:37;102165.72;;;17.89;32.08
73558;BME280;61829;53.286;10.434;2023-04-30T11:55:23;102158.47;;;17.74;31.30
73558;BME280;61829;53.286;10.434;2023-04-30T11:57:51;102155.56;;;17.76;32.90
73558;BME280;61829;53.286;10.434;2023-04-30T12:00:27;102153.00;;;17.68;33.06
73558;BME280;61829;53.286;10.434;2023-04-30T12:02:53;102157.78;;;17.66;32.90
73558;BME280;61829;53.286;10.434;2023-04-30T12:05:21;102158.31;;;17.48;32.86
73558;BME280;61829;53.286;10.434;2023-04-30T12:07:49;102149.69;;;17.72;33.73
73558;BME280;61829;53.286;10.434;2023-04-30T12:10:18;102154.44;;;17.92;32.14
73558;BME280;61829;53.286;10.434;2023-04-30T12:12:43;102152.91;;;17.83;32.56
73558;BME280;61829;53.286;10.434;2023-04-30T12:15:15;102156.03;;;17.80;32.41
73558;BME280;61829;53.286;10.434;2023-04-30T12:17:41;102147.66;;;17.81;31.47
73558;BME280;61829;53.286;10.434;2023-04-30T12:20:09;102144.72;;;17.83;31.51
73558;BME280;61829;53.286;10.434;2023-04-30T12:22:35;102141.69;;;18.06;31.95
73558;BME280;61829;53.286;10.434;2023-04-30T12:25:07;102149.19;;;18.32;32.92
73558;BME280;61829;53.286;10.434;2023-04-30T12:27:35;102145.28;;;18.54;30.93
73558;BME280;61829;53.286;10.434;2023-04-30T12:30:05;102145.09;;;18.69;30.31
73558;BME280;61829;53.286;10.434;2023-04-30T12:32:37;102145.47;;;18.53;30.87
73558;BME280;61829;53.286;10.434;2023-04-30T12:35:04;102144.38;;;18.40;30.89
73558;BME280;61829;53.286;10.434;2023-04-30T12:37:31;102136.31;;;18.19;29.71
73558;BME280;61829;53.286;10.434;2023-04-30T12:39:57;102137.59;;;18.23;31.35
73558;BME280;61829;53.286;10.434;2023-04-30T12:42:23;102142.59;;;18.13;30.84
73558;BME280;61829;53.286;10.434;2023-04-30T12:44:49;102145.78;;;18.23;31.66
73558;BME280;61829;53.286;10.434;2023-04-30T12:47:15;102139.44;;;18.16;29.64
73558;BME280;61829;53.286;10.434;2023-04-30T12:49:44;102137.84;;;18.35;31.29
73558;BME280;61829;53.286;10.434;2023-04-30T12:52:11;102133.22;;;18.35;29.46
73558;BME280;61829;53.286;10.434;2023-04-30T12:54:38;102124.22;;;18.48;31.75
73558;BME280;61829;53.286;10.434;2023-04-30T12:59:32;102116.69;;;18.50;30.64
73558;BME280;61829;53.286;10.434;2023-04-30T13:04:33;102112.06;;;17.96;31.99
73558;BME280;61829;53.286;10.434;2023-04-30T13:07:00;102123.41;;;17.93;31.29
73558;BME280;61829;53.286;10.434;2023-04-30T13:09:26;102108.25;;;17.84;31.01
73558;BME280;61829;53.286;10.434;2023-04-30T13:11:52;102107.47;;;17.97;32.40
73558;BME280;61829;53.286;10.434;2023-04-30T13:14:18;102110.28;;;18.16;32.55
73558;BME280;61829;53.286;10.434;2023-04-30T13:16:44;102107.78;;;18.28;31.79
73558;BME280;61829;53.286;10.434;2023-04-30T13:19:10;102102.56;;;18.33;31.11
73558;BME280;61829;53.286;10.434;2023-04-30T13:21:36;102096.13;;;18.54;30.49
73558;BME280;61829;53.286;10.434;2023-04-30T13:24:02;102091.50;;;18.68;30.94
73558;BME280;61829;53.286;10.434;2023-04-30T13:26:28;102096.00;;;18.82;32.59
73558;BME280;61829;53.286;10.434;2023-04-30T13:28:54;102088.44;;;18.91;31.16
73558;BME280;61829;53.286;10.434;2023-04-30T13:31:20;102091.78;;;19.06;31.75